sensor_id;sensor_type;location;lat;lon;timestamp;P1;durP1;ratioP1;P2;durP2;ratioP2
59006;SDS011;44792;52.760;6.726;2023-12-04T00:00:35;30.95;;;15.43;;
59006;SDS011;44792;52.760;6.726;2023-12-04T00:03:00;29.25;;;14.95;;
59006;SDS011;44792;52.760;6.726;2023-12-04T00:05:26;32.20;;;15.82;;
59006;SDS011;44792;52.760;6.726;2023-12-04T00:07:52;35.17;;;16.92;;
59006;SDS011;44792;52.760;6.726;2023-12-04T00:10:18;36.03;;;15.85;;
59006;SDS011;44792;52.760;6.726;2023-12-04T00:12:43;34.08;;;16.20;;
59006;SDS011;44792;52.760;6.726;2023-12-04T00:15:09;33.03;;;14.57;;
59006;SDS011;44792;52.760;6.726;2023-12-04T00:17:35;33.03;;;16.02;;
59006;SDS011;44792;52.760;6.726;2023-12-04T00:20:05;31.60;;;15.73;;
59006;SDS011;44792;52.760;6.726;2023-12-04T00:22:32;31.08;;;15.82;;
59006;SDS011;44792;52.760;6.726;2023-12-04T00:24:57;34.13;;;15.68;;
59006;SDS011;44792;52.760;6.726;2023-12-04T00:27:23;28.83;;;14.10;;
59006;SDS011;44792;52.760;6.726;2023-12-04T00:29:52;27.23;;;13.75;;
59006;SDS011;44792;52.760;6.726;2023-12-04T00:32:18;32.92;;;15.05;;
59006;SDS011;44792;52.760;6.726;2023-12-04T00:34:43;30.67;;;14.82;;
59006;SDS011;44792;52.760;6.726;2023-12-04T00:37:09;28.85;;;13.75;;
59006;SDS011;44792;52.760;6.726;2023-12-04T00:39:35;31.63;;;15.07;;
59006;SDS011;44792;52.760;6.726;2023-12-04T00:42:01;28.10;;;13.77;;
59006;SDS011;44792;52.760;6.726;2023-12-04T00:44:26;32.72;;;14.45;;
59006;SDS011;44792;52.760;6.726;2023-12-04T00:46:52;24.25;;;12.68;;
59006;SDS011;44792;52.760;6.726;2023-12-04T00:49:18;34.60;;;14.13;;
59006;SDS011;44792;52.760;6.726;2023-12-04T00:51:44;29.15;;;13.93;;
59006;SDS011;44792;52.760;6.726;2023-12-04T00:54:10;27.48;;;13.60;;
59006;SDS011;44792;52.760;6.726;2023-12-04T00:56:39;29.20;;;13.73;;
59006;SDS011;44792;52.760;6.726;2023-12-04T00:59:07;27.55;;;13.93;;
59006;SDS011;44792;52.760;6.726;2023-12-04T01:01:34;29.70;;;15.13;;
59006;SDS011;44792;52.760;6.726;2023-12-04T01:04:00;30.00;;;13.52;;
59006;SDS011;44792;52.760;6.726;2023-12-04T01:06:26;27.08;;;13.80;;
59006;SDS011;44792;52.760;6.726;2023-12-04T01:08:53;27.30;;;13.32;;
59006;SDS011;44792;52.760;6.726;2023-12-04T01:11:19;26.88;;;13.57;;
59006;SDS011;44792;52.760;6.726;2023-12-04T01:13:45;27.77;;;14.70;;
59006;SDS011;44792;52.760;6.726;2023-12-04T01:16:11;29.45;;;13.20;;
59006;SDS011;44792;52.760;6.726;2023-12-04T01:18:37;30.00;;;14.88;;
59006;SDS011;44792;52.760;6.726;2023-12-04T01:21:03;26.08;;;12.80;;
59006;SDS011;44792;52.760;6.726;2023-12-04T01:23:28;26.38;;;14.52;;
59006;SDS011;44792;52.760;6.726;2023-12-04T01:25:54;29.05;;;14.43;;
59006;SDS011;44792;52.760;6.726;2023-12-04T01:28:20;26.88;;;13.38;;
59006;SDS011;44792;52.760;6.726;2023-12-04T01:30:46;26.95;;;12.65;;
59006;SDS011;44792;52.760;6.726;2023-12-04T01:33:11;31.58;;;13.65;;
59006;SDS011;44792;52.760;6.726;2023-12-04T01:35:37;29.75;;;14.77;;
59006;SDS011;44792;52.760;6.726;2023-12-04T01:38:03;25.17;;;13.30;;
59006;SDS011;44792;52.760;6.726;2023-12-04T01:40:28;24.15;;;13.13;;
59006;SDS011;44792;52.760;6.726;2023-12-04T01:42:54;29.08;;;14.05;;
59006;SDS011;44792;52.760;6.726;2023-12-04T01:45:20;25.10;;;12.63;;
59006;SDS011;44792;52.760;6.726;2023-12-04T01:47:45;26.95;;;14.02;;
59006;SDS011;44792;52.760;6.726;2023-12-04T01:50:11;27.27;;;12.32;;
59006;SDS011;44792;52.760;6.726;2023-12-04T01:52:39;28.80;;;14.18;;
59006;SDS011;44792;52.760;6.726;2023-12-04T01:55:05;26.30;;;12.68;;
59006;SDS011;44792;52.760;6.726;2023-12-04T01:57:33;22.58;;;12.98;;
59006;SDS011;44792;52.760;6.726;2023-12-04T02:00:00;27.77;;;13.73;;
59006;SDS011;44792;52.760;6.726;2023-12-04T02:02:27;31.05;;;13.68;;
59006;SDS011;44792;52.760;6.726;2023-12-04T02:04:56;25.65;;;14.02;;
59006;SDS011;44792;52.760;6.726;2023-12-04T02:07:24;25.58;;;13.18;;
59006;SDS011;44792;52.760;6.726;2023-12-04T02:09:50;26.10;;;13.23;;
59006;SDS011;44792;52.760;6.726;2023-12-04T02:12:16;27.40;;;13.63;;
59006;SDS011;44792;52.760;6.726;2023-12-04T02:14:42;28.30;;;12.77;;
59006;SDS011;44792;52.760;6.726;2023-12-04T02:17:08;27.98;;;14.18;;
59006;SDS011;44792;52.760;6.726;2023-12-04T02:19:34;26.60;;;13.00;;
59006;SDS011;44792;52.760;6.726;2023-12-04T02:22:01;26.35;;;13.52;;
59006;SDS011;44792;52.760;6.726;2023-12-04T02:24:27;25.00;;;13.93;;
59006;SDS011;44792;52.760;6.726;2023-12-04T02:26:57;27.83;;;13.80;;
59006;SDS011;44792;52.760;6.726;2023-12-04T02:29:29;29.27;;;14.25;;
59006;SDS011;44792;52.760;6.726;2023-12-04T02:32:01;27.58;;;13.98;;
59006;SDS011;44792;52.760;6.726;2023-12-04T02:34:31;26.00;;;13.02;;
59006;SDS011;44792;52.760;6.726;2023-12-04T02:36:58;26.70;;;13.13;;
59006;SDS011;44792;52.760;6.726;2023-12-04T02:39:26;25.98;;;13.15;;
59006;SDS011;44792;52.760;6.726;2023-12-04T02:41:52;25.95;;;13.40;;
59006;SDS011;44792;52.760;6.726;2023-12-04T02:44:18;27.23;;;13.93;;
59006;SDS011;44792;52.760;6.726;2023-12-04T02:46:43;26.58;;;13.73;;
59006;SDS011;44792;52.760;6.726;2023-12-04T02:49:09;26.15;;;12.90;;
59006;SDS011;44792;52.760;6.726;2023-12-04T02:51:35;29.23;;;13.18;;
59006;SDS011;44792;52.760;6.726;2023-12-04T02:54:00;25.15;;;12.30;;
59006;SDS011;44792;52.760;6.726;2023-12-04T02:56:26;26.50;;;13.07;;
59006;SDS011;44792;52.760;6.726;2023-12-04T02:58:52;22.33;;;11.88;;
59006;SDS011;44792;52.760;6.726;2023-12-04T03:01:17;26.85;;;13.45;;
59006;SDS011;44792;52.760;6.726;2023-12-04T03:03:43;25.48;;;12.77;;
59006;SDS011;44792;52.760;6.726;2023-12-04T03:06:09;24.88;;;12.68;;
59006;SDS011;44792;52.760;6.726;2023-12-04T03:08:34;26.83;;;12.73;;
59006;SDS011;44792;52.760;6.726;2023-12-04T03:11:01;23.40;;;12.27;;
59006;SDS011;44792;52.760;6.726;2023-12-04T03:13:28;27.27;;;13.43;;
59006;SDS011;44792;52.760;6.726;2023-12-04T03:15:54;25.75;;;12.98;;
59006;SDS011;44792;52.760;6.726;2023-12-04T03:18:20;26.40;;;11.48;;
59006;SDS011;44792;52.760;6.726;2023-12-04T03:20:45;26.42;;;12.80;;
59006;SDS011;44792;52.760;6.726;2023-12-04T03:23:11;24.75;;;12.88;;
59006;SDS011;44792;52.760;6.726;2023-12-04T03:25:37;22.73;;;11.63;;
59006;SDS011;44792;52.760;6.726;2023-12-04T03:28:02;23.17;;;12.13;;
59006;SDS011;44792;52.760;6.726;2023-12-04T03:30:28;25.23;;;11.88;;
59006;SDS011;44792;52.760;6.726;2023-12-04T03:32:54;26.15;;;12.45;;
59006;SDS011;44792;52.760;6.726;2023-12-04T03:35:19;23.00;;;11.57;;
59006;SDS011;44792;52.760;6.726;2023-12-04T03:37:45;26.55;;;12.63;;
59006;SDS011;44792;52.760;6.726;2023-12-04T03:40:11;23.27;;;11.98;;
59006;SDS011;44792;52.760;6.726;2023-12-04T03:42:37;22.10;;;11.13;;
59006;SDS011;44792;52.760;6.726;2023-12-04T03:45:02;24.25;;;11.60;;
59006;SDS011;44792;52.760;6.726;2023-12-04T03:47:29;24.90;;;11.52;;
59006;SDS011;44792;52.760;6.726;2023-12-04T03:49:54;24.17;;;11.68;;
59006;SDS011;44792;52.760;6.726;2023-12-04T03:52:20;21.08;;;10.82;;
59006;SDS011;44792;52.760;6.726;2023-12-04T03:54:46;26.38;;;11.35;;
59006;SDS011;44792;52.760;6.726;2023-12-04T03:57:11;25.48;;;11.80;;
59006;SDS011;44792;52.760;6.726;2023-12-04T03:59:37;20.67;;;10.32;;
59006;SDS011;44792;52.760;6.726;2023-12-04T04:02:02;24.85;;;12.32;;
59006;SDS011;44792;52.760;6.726;2023-12-04T04:04:28;26.25;;;12.63;;
59006;SDS011;44792;52.760;6.726;2023-12-04T04:06:54;31.48;;;13.75;;
59006;SDS011;44792;52.760;6.726;2023-12-04T04:09:20;23.30;;;11.98;;
59006;SDS011;44792;52.760;6.726;2023-12-04T04:11:46;24.30;;;11.90;;
59006;SDS011;44792;52.760;6.726;2023-12-04T04:14:11;29.33;;;12.82;;
59006;SDS011;44792;52.760;6.726;2023-12-04T04:16:37;22.45;;;11.23;;
59006;SDS011;44792;52.760;6.726;2023-12-04T04:19:03;25.48;;;11.63;;
59006;SDS011;44792;52.760;6.726;2023-12-04T04:21:28;21.88;;;11.50;;
59006;SDS011;44792;52.760;6.726;2023-12-04T04:23:54;25.95;;;11.70;;
59006;SDS011;44792;52.760;6.726;2023-12-04T04:26:20;24.90;;;12.55;;
59006;SDS011;44792;52.760;6.726;2023-12-04T04:28:45;26.98;;;12.32;;
59006;SDS011;44792;52.760;6.726;2023-12-04T04:31:11;23.15;;;11.90;;
59006;SDS011;44792;52.760;6.726;2023-12-04T04:33:37;22.13;;;11.18;;
59006;SDS011;44792;52.760;6.726;2023-12-04T04:36:02;24.88;;;12.90;;
59006;SDS011;44792;52.760;6.726;2023-12-04T04:38:28;26.13;;;12.35;;
59006;SDS011;44792;52.760;6.726;2023-12-04T04:40:54;23.48;;;11.18;;
59006;SDS011;44792;52.760;6.726;2023-12-04T04:43:20;22.23;;;11.00;;
59006;SDS011;44792;52.760;6.726;2023-12-04T04:45:46;25.17;;;12.23;;
59006;SDS011;44792;52.760;6.726;2023-12-04T04:48:12;22.65;;;11.70;;
59006;SDS011;44792;52.760;6.726;2023-12-04T04:50:37;24.58;;;12.02;;
59006;SDS011;44792;52.760;6.726;2023-12-04T04:53:03;21.70;;;11.85;;
59006;SDS011;44792;52.760;6.726;2023-12-04T04:55:29;24.58;;;12.18;;
59006;SDS011;44792;52.760;6.726;2023-12-04T04:57:56;22.60;;;11.27;;
59006;SDS011;44792;52.760;6.726;2023-12-04T05:00:22;20.92;;;11.32;;
59006;SDS011;44792;52.760;6.726;2023-12-04T05:02:48;24.42;;;11.80;;
59006;SDS011;44792;52.760;6.726;2023-12-04T05:05:13;22.65;;;10.77;;
59006;SDS011;44792;52.760;6.726;2023-12-04T05:07:39;24.15;;;11.77;;
59006;SDS011;44792;52.760;6.726;2023-12-04T05:10:05;24.55;;;12.48;;
59006;SDS011;44792;52.760;6.726;2023-12-04T05:12:31;24.58;;;11.10;;
59006;SDS011;44792;52.760;6.726;2023-12-04T05:14:56;19.23;;;10.43;;
59006;SDS011;44792;52.760;6.726;2023-12-04T05:17:22;26.17;;;12.30;;
59006;SDS011;44792;52.760;6.726;2023-12-04T05:19:48;22.52;;;11.52;;
59006;SDS011;44792;52.760;6.726;2023-12-04T05:22:13;21.30;;;10.50;;
59006;SDS011;44792;52.760;6.726;2023-12-04T05:24:39;22.00;;;11.05;;
59006;SDS011;44792;52.760;6.726;2023-12-04T05:27:05;22.00;;;11.15;;
59006;SDS011;44792;52.760;6.726;2023-12-04T05:29:31;22.15;;;10.52;;
59006;SDS011;44792;52.760;6.726;2023-12-04T05:31:56;24.60;;;11.55;;
59006;SDS011;44792;52.760;6.726;2023-12-04T05:34:23;21.58;;;10.80;;
59006;SDS011;44792;52.760;6.726;2023-12-04T05:36:48;25.40;;;12.15;;
59006;SDS011;44792;52.760;6.726;2023-12-04T05:39:14;20.23;;;11.35;;
59006;SDS011;44792;52.760;6.726;2023-12-04T05:41:40;23.23;;;10.30;;
59006;SDS011;44792;52.760;6.726;2023-12-04T05:44:05;20.15;;;11.10;;
59006;SDS011;44792;52.760;6.726;2023-12-04T05:46:31;19.33;;;10.55;;
59006;SDS011;44792;52.760;6.726;2023-12-04T05:48:57;19.52;;;10.77;;
59006;SDS011;44792;52.760;6.726;2023-12-04T05:51:23;22.27;;;11.50;;
59006;SDS011;44792;52.760;6.726;2023-12-04T05:53:49;20.08;;;10.68;;
59006;SDS011;44792;52.760;6.726;2023-12-04T05:56:14;20.95;;;11.40;;
59006;SDS011;44792;52.760;6.726;2023-12-04T05:58:40;20.95;;;10.77;;
59006;SDS011;44792;52.760;6.726;2023-12-04T06:01:06;22.38;;;11.07;;
59006;SDS011;44792;52.760;6.726;2023-12-04T06:03:32;20.85;;;11.20;;
59006;SDS011;44792;52.760;6.726;2023-12-04T06:05:58;21.85;;;10.35;;
59006;SDS011;44792;52.760;6.726;2023-12-04T06:08:24;19.52;;;10.65;;
59006;SDS011;44792;52.760;6.726;2023-12-04T06:10:49;20.80;;;10.40;;
59006;SDS011;44792;52.760;6.726;2023-12-04T06:13:15;21.65;;;11.27;;
59006;SDS011;44792;52.760;6.726;2023-12-04T06:15:41;20.63;;;10.05;;
59006;SDS011;44792;52.760;6.726;2023-12-04T06:18:07;20.67;;;10.75;;
59006;SDS011;44792;52.760;6.726;2023-12-04T06:20:33;19.83;;;10.68;;
59006;SDS011;44792;52.760;6.726;2023-12-04T06:22:59;23.67;;;11.52;;
59006;SDS011;44792;52.760;6.726;2023-12-04T06:25:25;22.95;;;10.20;;
59006;SDS011;44792;52.760;6.726;2023-12-04T06:27:51;22.05;;;10.18;;
59006;SDS011;44792;52.760;6.726;2023-12-04T06:30:17;18.58;;;9.95;;
59006;SDS011;44792;52.760;6.726;2023-12-04T06:32:43;24.88;;;11.18;;
59006;SDS011;44792;52.760;6.726;2023-12-04T06:35:09;20.52;;;9.40;;
59006;SDS011;44792;52.760;6.726;2023-12-04T06:37:37;20.60;;;10.85;;
59006;SDS011;44792;52.760;6.726;2023-12-04T06:40:05;19.30;;;10.65;;
59006;SDS011;44792;52.760;6.726;2023-12-04T06:42:34;20.17;;;10.23;;
59006;SDS011;44792;52.760;6.726;2023-12-04T06:45:00;20.33;;;10.75;;
59006;SDS011;44792;52.760;6.726;2023-12-04T06:47:26;16.98;;;9.70;;
59006;SDS011;44792;52.760;6.726;2023-12-04T06:49:56;22.10;;;10.82;;
59006;SDS011;44792;52.760;6.726;2023-12-04T06:52:21;18.15;;;10.18;;
59006;SDS011;44792;52.760;6.726;2023-12-04T06:54:47;17.95;;;9.07;;
59006;SDS011;44792;52.760;6.726;2023-12-04T06:57:13;17.98;;;9.93;;
59006;SDS011;44792;52.760;6.726;2023-12-04T06:59:41;19.90;;;11.15;;
59006;SDS011;44792;52.760;6.726;2023-12-04T07:02:07;21.50;;;10.10;;
59006;SDS011;44792;52.760;6.726;2023-12-04T07:04:33;19.73;;;10.02;;
59006;SDS011;44792;52.760;6.726;2023-12-04T07:06:58;25.60;;;13.82;;
59006;SDS011;44792;52.760;6.726;2023-12-04T07:09:30;23.60;;;12.02;;
59006;SDS011;44792;52.760;6.726;2023-12-04T07:11:57;19.05;;;10.80;;
59006;SDS011;44792;52.760;6.726;2023-12-04T07:14:23;21.20;;;9.90;;
59006;SDS011;44792;52.760;6.726;2023-12-04T07:16:48;17.98;;;9.75;;
59006;SDS011;44792;52.760;6.726;2023-12-04T07:19:14;18.70;;;9.95;;
59006;SDS011;44792;52.760;6.726;2023-12-04T07:21:41;22.80;;;10.45;;
59006;SDS011;44792;52.760;6.726;2023-12-04T07:24:07;18.88;;;10.57;;
59006;SDS011;44792;52.760;6.726;2023-12-04T07:26:34;22.45;;;9.77;;
59006;SDS011;44792;52.760;6.726;2023-12-04T07:29:00;19.10;;;9.98;;
59006;SDS011;44792;52.760;6.726;2023-12-04T07:31:26;20.75;;;10.02;;
59006;SDS011;44792;52.760;6.726;2023-12-04T07:33:55;20.20;;;10.07;;
59006;SDS011;44792;52.760;6.726;2023-12-04T07:36:21;18.42;;;10.00;;
59006;SDS011;44792;52.760;6.726;2023-12-04T07:38:47;16.05;;;8.52;;
59006;SDS011;44792;52.760;6.726;2023-12-04T07:41:14;23.02;;;10.45;;
59006;SDS011;44792;52.760;6.726;2023-12-04T07:43:40;19.58;;;10.30;;
59006;SDS011;44792;52.760;6.726;2023-12-04T07:46:06;21.85;;;10.02;;
59006;SDS011;44792;52.760;6.726;2023-12-04T07:48:33;20.88;;;10.50;;
59006;SDS011;44792;52.760;6.726;2023-12-04T07:50:59;25.40;;;9.70;;
59006;SDS011;44792;52.760;6.726;2023-12-04T07:53:25;17.75;;;9.07;;
59006;SDS011;44792;52.760;6.726;2023-12-04T07:55:51;18.17;;;10.20;;
59006;SDS011;44792;52.760;6.726;2023-12-04T07:58:17;18.23;;;9.13;;
59006;SDS011;44792;52.760;6.726;2023-12-04T08:00:46;18.02;;;10.30;;
59006;SDS011;44792;52.760;6.726;2023-12-04T08:03:12;17.45;;;9.32;;
59006;SDS011;44792;52.760;6.726;2023-12-04T08:05:38;15.38;;;8.70;;
59006;SDS011;44792;52.760;6.726;2023-12-04T08:08:04;20.58;;;9.57;;
59006;SDS011;44792;52.760;6.726;2023-12-04T08:10:30;18.88;;;9.55;;
59006;SDS011;44792;52.760;6.726;2023-12-04T08:12:56;16.75;;;9.40;;
59006;SDS011;44792;52.760;6.726;2023-12-04T08:15:22;22.10;;;10.02;;
59006;SDS011;44792;52.760;6.726;2023-12-04T08:17:48;18.92;;;10.20;;
59006;SDS011;44792;52.760;6.726;2023-12-04T08:20:13;20.08;;;9.45;;
59006;SDS011;44792;52.760;6.726;2023-12-04T08:22:40;18.00;;;9.57;;
59006;SDS011;44792;52.760;6.726;2023-12-04T08:25:06;18.08;;;9.38;;
59006;SDS011;44792;52.760;6.726;2023-12-04T08:27:33;17.80;;;8.98;;
59006;SDS011;44792;52.760;6.726;2023-12-04T08:29:58;21.52;;;9.32;;
59006;SDS011;44792;52.760;6.726;2023-12-04T08:32:24;15.35;;;8.55;;
59006;SDS011;44792;52.760;6.726;2023-12-04T08:34:51;17.98;;;9.13;;
59006;SDS011;44792;52.760;6.726;2023-12-04T08:37:20;17.27;;;8.75;;
59006;SDS011;44792;52.760;6.726;2023-12-04T08:39:45;16.80;;;8.93;;
59006;SDS011;44792;52.760;6.726;2023-12-04T08:42:11;14.95;;;8.32;;
59006;SDS011;44792;52.760;6.726;2023-12-04T08:44:37;18.60;;;9.23;;
59006;SDS011;44792;52.760;6.726;2023-12-04T08:47:04;18.15;;;8.88;;
59006;SDS011;44792;52.760;6.726;2023-12-04T08:49:30;15.43;;;8.68;;
59006;SDS011;44792;52.760;6.726;2023-12-04T08:51:56;14.70;;;8.88;;
59006;SDS011;44792;52.760;6.726;2023-12-04T08:54:21;13.73;;;8.52;;
59006;SDS011;44792;52.760;6.726;2023-12-04T08:56:48;15.18;;;8.60;;
59006;SDS011;44792;52.760;6.726;2023-12-04T08:59:14;17.45;;;9.05;;
59006;SDS011;44792;52.760;6.726;2023-12-04T09:01:39;15.23;;;7.85;;
59006;SDS011;44792;52.760;6.726;2023-12-04T09:04:05;18.80;;;7.85;;
59006;SDS011;44792;52.760;6.726;2023-12-04T09:06:33;14.43;;;7.70;;
59006;SDS011;44792;52.760;6.726;2023-12-04T09:08:59;15.60;;;8.55;;
59006;SDS011;44792;52.760;6.726;2023-12-04T09:11:24;12.95;;;7.47;;
59006;SDS011;44792;52.760;6.726;2023-12-04T09:13:50;14.60;;;7.60;;
59006;SDS011;44792;52.760;6.726;2023-12-04T09:16:17;17.35;;;7.95;;
59006;SDS011;44792;52.760;6.726;2023-12-04T09:18:42;16.30;;;8.52;;
59006;SDS011;44792;52.760;6.726;2023-12-04T09:21:08;16.38;;;8.23;;
59006;SDS011;44792;52.760;6.726;2023-12-04T09:23:34;15.80;;;7.68;;
59006;SDS011;44792;52.760;6.726;2023-12-04T09:26:00;17.40;;;8.10;;
59006;SDS011;44792;52.760;6.726;2023-12-04T09:28:26;15.10;;;7.63;;
59006;SDS011;44792;52.760;6.726;2023-12-04T09:30:52;14.77;;;8.15;;
59006;SDS011;44792;52.760;6.726;2023-12-04T09:33:18;13.38;;;7.60;;
59006;SDS011;44792;52.760;6.726;2023-12-04T09:35:43;15.65;;;7.68;;
59006;SDS011;44792;52.760;6.726;2023-12-04T09:38:09;14.45;;;6.57;;
59006;SDS011;44792;52.760;6.726;2023-12-04T09:40:35;11.45;;;7.05;;
59006;SDS011;44792;52.760;6.726;2023-12-04T09:43:01;12.85;;;6.75;;
59006;SDS011;44792;52.760;6.726;2023-12-04T09:45:28;17.58;;;8.98;;
59006;SDS011;44792;52.760;6.726;2023-12-04T09:47:56;15.32;;;7.97;;
59006;SDS011;44792;52.760;6.726;2023-12-04T09:50:23;15.57;;;7.45;;
59006;SDS011;44792;52.760;6.726;2023-12-04T09:52:49;14.55;;;7.28;;
59006;SDS011;44792;52.760;6.726;2023-12-04T09:55:15;15.27;;;7.43;;
59006;SDS011;44792;52.760;6.726;2023-12-04T09:57:43;16.88;;;7.40;;
59006;SDS011;44792;52.760;6.726;2023-12-04T10:00:11;17.17;;;7.40;;
59006;SDS011;44792;52.760;6.726;2023-12-04T10:02:38;13.70;;;6.90;;
59006;SDS011;44792;52.760;6.726;2023-12-04T10:05:05;13.50;;;7.53;;
59006;SDS011;44792;52.760;6.726;2023-12-04T10:07:32;14.65;;;8.43;;
59006;SDS011;44792;52.760;6.726;2023-12-04T10:09:57;13.23;;;6.72;;
59006;SDS011;44792;52.760;6.726;2023-12-04T10:12:23;12.77;;;6.53;;
59006;SDS011;44792;52.760;6.726;2023-12-04T10:15:02;11.40;;;6.55;;
59006;SDS011;44792;52.760;6.726;2023-12-04T10:17:37;11.20;;;6.20;;
59006;SDS011;44792;52.760;6.726;2023-12-04T10:20:09;12.48;;;7.68;;
59006;SDS011;44792;52.760;6.726;2023-12-04T10:22:38;16.17;;;7.40;;
59006;SDS011;44792;52.760;6.726;2023-12-04T10:25:23;10.95;;;6.72;;
59006;SDS011;44792;52.760;6.726;2023-12-04T10:27:50;11.95;;;6.65;;
59006;SDS011;44792;52.760;6.726;2023-12-04T10:30:25;13.77;;;6.25;;
59006;SDS011;44792;52.760;6.726;2023-12-04T10:33:03;11.18;;;6.30;;
59006;SDS011;44792;52.760;6.726;2023-12-04T10:35:30;12.48;;;6.57;;
59006;SDS011;44792;52.760;6.726;2023-12-04T10:38:04;11.70;;;6.25;;
59006;SDS011;44792;52.760;6.726;2023-12-04T10:40:34;12.20;;;6.95;;
59006;SDS011;44792;52.760;6.726;2023-12-04T10:45:40;11.57;;;6.70;;
59006;SDS011;44792;52.760;6.726;2023-12-04T10:48:07;13.05;;;6.55;;
59006;SDS011;44792;52.760;6.726;2023-12-04T10:50:34;12.23;;;7.70;;
59006;SDS011;44792;52.760;6.726;2023-12-04T10:53:03;15.40;;;6.93;;
59006;SDS011;44792;52.760;6.726;2023-12-04T10:55:30;11.98;;;6.38;;
59006;SDS011;44792;52.760;6.726;2023-12-04T10:57:56;13.10;;;6.75;;
59006;SDS011;44792;52.760;6.726;2023-12-04T11:00:24;11.57;;;6.95;;
59006;SDS011;44792;52.760;6.726;2023-12-04T11:02:52;11.70;;;6.50;;
59006;SDS011;44792;52.760;6.726;2023-12-04T11:05:22;10.73;;;6.75;;
59006;SDS011;44792;52.760;6.726;2023-12-04T11:07:53;9.35;;;5.88;;
59006;SDS011;44792;52.760;6.726;2023-12-04T11:10:22;13.27;;;7.03;;
59006;SDS011;44792;52.760;6.726;2023-12-04T11:13:00;12.07;;;5.85;;
59006;SDS011;44792;52.760;6.726;2023-12-04T11:15:42;10.38;;;5.97;;
59006;SDS011;44792;52.760;6.726;2023-12-04T11:18:11;10.85;;;6.57;;
59006;SDS011;44792;52.760;6.726;2023-12-04T11:20:56;9.95;;;5.93;;
59006;SDS011;44792;52.760;6.726;2023-12-04T11:23:25;7.95;;;5.20;;
59006;SDS011;44792;52.760;6.726;2023-12-04T11:25:51;10.25;;;6.05;;
59006;SDS011;44792;52.760;6.726;2023-12-04T11:28:18;11.13;;;6.53;;
59006;SDS011;44792;52.760;6.726;2023-12-04T11:30:44;8.60;;;6.10;;
59006;SDS011;44792;52.760;6.726;2023-12-04T11:33:11;11.63;;;5.95;;
59006;SDS011;44792;52.760;6.726;2023-12-04T11:35:38;12.15;;;7.45;;
59006;SDS011;44792;52.760;6.726;2023-12-04T11:38:07;13.88;;;6.75;;
59006;SDS011;44792;52.760;6.726;2023-12-04T11:40:34;13.20;;;6.45;;
59006;SDS011;44792;52.760;6.726;2023-12-04T11:43:05;12.35;;;6.60;;
59006;SDS011;44792;52.760;6.726;2023-12-04T11:45:47;9.90;;;5.78;;
59006;SDS011;44792;52.760;6.726;2023-12-04T11:48:13;10.90;;;7.05;;
59006;SDS011;44792;52.760;6.726;2023-12-04T11:50:39;10.50;;;7.05;;
59006;SDS011;44792;52.760;6.726;2023-12-04T11:53:05;13.43;;;7.53;;
59006;SDS011;44792;52.760;6.726;2023-12-04T11:55:31;10.57;;;6.45;;
59006;SDS011;44792;52.760;6.726;2023-12-04T11:58:08;9.80;;;6.05;;
59006;SDS011;44792;52.760;6.726;2023-12-04T12:00:35;11.85;;;6.38;;
59006;SDS011;44792;52.760;6.726;2023-12-04T12:03:01;10.98;;;6.05;;
59006;SDS011;44792;52.760;6.726;2023-12-04T12:05:31;10.48;;;5.97;;
59006;SDS011;44792;52.760;6.726;2023-12-04T12:08:02;13.10;;;6.25;;
59006;SDS011;44792;52.760;6.726;2023-12-04T12:10:29;10.95;;;6.47;;
59006;SDS011;44792;52.760;6.726;2023-12-04T12:12:55;11.40;;;6.03;;
59006;SDS011;44792;52.760;6.726;2023-12-04T12:15:21;10.00;;;5.82;;
59006;SDS011;44792;52.760;6.726;2023-12-04T12:17:48;10.95;;;6.18;;
59006;SDS011;44792;52.760;6.726;2023-12-04T12:20:15;10.48;;;6.20;;
59006;SDS011;44792;52.760;6.726;2023-12-04T12:22:41;11.88;;;6.15;;
59006;SDS011;44792;52.760;6.726;2023-12-04T12:25:09;10.20;;;6.38;;
59006;SDS011;44792;52.760;6.726;2023-12-04T12:27:35;10.02;;;6.05;;
59006;SDS011;44792;52.760;6.726;2023-12-04T12:30:01;10.52;;;7.03;;
59006;SDS011;44792;52.760;6.726;2023-12-04T12:32:30;10.75;;;6.35;;
59006;SDS011;44792;52.760;6.726;2023-12-04T12:34:56;11.13;;;6.60;;
59006;SDS011;44792;52.760;6.726;2023-12-04T12:37:22;10.98;;;6.50;;
59006;SDS011;44792;52.760;6.726;2023-12-04T12:39:48;10.63;;;6.45;;
59006;SDS011;44792;52.760;6.726;2023-12-04T12:42:29;9.70;;;6.18;;
59006;SDS011;44792;52.760;6.726;2023-12-04T12:44:55;16.80;;;6.68;;
59006;SDS011;44792;52.760;6.726;2023-12-04T12:47:25;12.18;;;6.72;;
59006;SDS011;44792;52.760;6.726;2023-12-04T12:49:51;12.55;;;6.70;;
59006;SDS011;44792;52.760;6.726;2023-12-04T12:52:17;10.48;;;6.50;;
59006;SDS011;44792;52.760;6.726;2023-12-04T12:54:44;11.80;;;6.18;;
59006;SDS011;44792;52.760;6.726;2023-12-04T12:57:11;12.52;;;6.72;;
59006;SDS011;44792;52.760;6.726;2023-12-04T12:59:37;10.75;;;6.80;;
59006;SDS011;44792;52.760;6.726;2023-12-04T13:02:04;12.80;;;6.63;;
59006;SDS011;44792;52.760;6.726;2023-12-04T13:07:01;13.25;;;6.65;;
59006;SDS011;44792;52.760;6.726;2023-12-04T13:09:28;10.27;;;6.20;;
59006;SDS011;44792;52.760;6.726;2023-12-04T13:11:54;10.45;;;6.45;;
59006;SDS011;44792;52.760;6.726;2023-12-04T13:14:20;11.43;;;6.45;;
59006;SDS011;44792;52.760;6.726;2023-12-04T13:16:46;11.98;;;6.53;;
59006;SDS011;44792;52.760;6.726;2023-12-04T13:19:11;11.25;;;7.25;;
59006;SDS011;44792;52.760;6.726;2023-12-04T13:21:37;12.48;;;6.68;;
59006;SDS011;44792;52.760;6.726;2023-12-04T13:24:03;11.27;;;5.93;;
59006;SDS011;44792;52.760;6.726;2023-12-04T13:26:32;11.95;;;6.28;;
59006;SDS011;44792;52.760;6.726;2023-12-04T13:28:58;11.73;;;6.22;;
59006;SDS011;44792;52.760;6.726;2023-12-04T13:31:24;11.45;;;7.85;;
59006;SDS011;44792;52.760;6.726;2023-12-04T13:33:50;13.57;;;8.48;;
59006;SDS011;44792;52.760;6.726;2023-12-04T13:36:17;11.13;;;6.65;;
59006;SDS011;44792;52.760;6.726;2023-12-04T13:38:42;11.00;;;6.70;;
59006;SDS011;44792;52.760;6.726;2023-12-04T13:41:08;11.40;;;6.50;;
59006;SDS011;44792;52.760;6.726;2023-12-04T13:43:54;12.52;;;7.05;;
59006;SDS011;44792;52.760;6.726;2023-12-04T13:46:20;9.77;;;5.90;;
59006;SDS011;44792;52.760;6.726;2023-12-04T13:48:46;11.75;;;6.43;;
59006;SDS011;44792;52.760;6.726;2023-12-04T13:51:12;14.23;;;7.00;;
59006;SDS011;44792;52.760;6.726;2023-12-04T13:53:39;11.85;;;6.22;;
59006;SDS011;44792;52.760;6.726;2023-12-04T13:56:10;10.45;;;6.78;;
59006;SDS011;44792;52.760;6.726;2023-12-04T13:58:36;10.88;;;6.38;;
59006;SDS011;44792;52.760;6.726;2023-12-04T14:01:09;10.93;;;6.22;;
59006;SDS011;44792;52.760;6.726;2023-12-04T14:03:42;14.18;;;6.40;;
59006;SDS011;44792;52.760;6.726;2023-12-04T14:06:09;11.48;;;6.63;;
59006;SDS011;44792;52.760;6.726;2023-12-04T14:08:36;11.52;;;6.85;;
59006;SDS011;44792;52.760;6.726;2023-12-04T14:11:03;15.07;;;8.40;;
59006;SDS011;44792;52.760;6.726;2023-12-04T14:13:29;12.85;;;7.72;;
59006;SDS011;44792;52.760;6.726;2023-12-04T14:15:58;17.63;;;8.55;;
59006;SDS011;44792;52.760;6.726;2023-12-04T14:18:25;10.45;;;6.53;;
59006;SDS011;44792;52.760;6.726;2023-12-04T14:20:51;10.10;;;7.05;;
59006;SDS011;44792;52.760;6.726;2023-12-04T14:23:17;12.05;;;7.43;;
59006;SDS011;44792;52.760;6.726;2023-12-04T14:25:44;11.40;;;6.65;;
59006;SDS011;44792;52.760;6.726;2023-12-04T14:28:10;11.10;;;6.00;;
59006;SDS011;44792;52.760;6.726;2023-12-04T14:30:36;9.88;;;6.15;;